createdAt,value
2022-12-24T00:00:46.612Z,10.97
2022-12-24T00:05:48.108Z,10.30
2022-12-24T00:10:53.589Z,10.37
2022-12-24T00:15:55.121Z,10.40
2022-12-24T00:20:56.610Z,10.63
2022-12-24T00:25:58.148Z,10.10
2022-12-24T00:30:59.679Z,10.67
2022-12-24T00:36:01.147Z,10.00
2022-12-24T00:41:04.476Z,10.03
2022-12-24T00:46:06.000Z,11.57
2022-12-24T00:51:07.555Z,10.47
2022-12-24T00:56:09.745Z,11.17
2022-12-24T01:01:12.043Z,12.03
2022-12-24T01:06:16.666Z,12.73
2022-12-24T01:16:20.833Z,11.17
2022-12-24T01:21:22.374Z,10.10
2022-12-24T01:26:23.860Z,9.63
2022-12-24T01:31:25.382Z,9.03
2022-12-24T01:36:26.862Z,10.20
2022-12-24T01:41:49.372Z,8.73
2022-12-24T01:46:54.962Z,9.57
2022-12-24T01:52:04.897Z,9.30
2022-12-24T01:57:24.196Z,10.43
2022-12-24T02:02:27.212Z,8.90
2022-12-24T02:07:29.347Z,9.27
2022-12-24T02:12:35.156Z,10.20
2022-12-24T02:18:01.632Z,10.20
2022-12-24T02:23:18.454Z,11.00
2022-12-24T02:28:32.087Z,10.63
2022-12-24T02:33:50.489Z,13.60
2022-12-24T02:39:04.081Z,10.60
2022-12-24T02:44:05.581Z,11.53
2022-12-24T02:49:07.198Z,10.50
2022-12-24T02:54:08.672Z,9.57
2022-12-24T02:59:34.434Z,11.50
2022-12-24T03:04:48.240Z,10.00
2022-12-24T03:10:17.839Z,9.77
2022-12-24T03:15:21.839Z,9.63
2022-12-24T03:20:31.154Z,10.00
2022-12-24T03:25:34.176Z,10.43
2022-12-24T03:30:38.837Z,8.60
2022-12-24T03:40:41.814Z,7.90
2022-12-24T03:45:43.361Z,9.17
2022-12-24T03:50:44.858Z,9.70
2022-12-24T03:55:47.250Z,7.30
2022-12-24T04:00:48.754Z,7.80
2022-12-24T04:06:07.598Z,7.67
2022-12-24T04:11:11.201Z,7.73
2022-12-24T04:16:15.714Z,6.93
2022-12-24T04:21:17.279Z,8.07
2022-12-24T04:26:18.785Z,8.47
2022-12-24T04:31:20.324Z,7.90
2022-12-24T04:36:23.287Z,7.53
2022-12-24T04:41:25.228Z,8.37
2022-12-24T04:46:31.895Z,8.63
2022-12-24T04:51:33.515Z,7.47
2022-12-24T04:56:35.024Z,7.57
2022-12-24T05:01:36.748Z,7.43
2022-12-24T05:06:38.403Z,8.23
2022-12-24T05:11:39.927Z,7.00
2022-12-24T05:16:41.423Z,8.27
2022-12-24T05:21:42.906Z,7.37
2022-12-24T05:26:54.766Z,7.80
2022-12-24T05:31:56.254Z,7.47
2022-12-24T05:36:57.681Z,8.87
2022-12-24T05:41:59.157Z,8.03
2022-12-24T05:47:00.642Z,7.90
2022-12-24T05:52:02.071Z,8.83
2022-12-24T05:57:03.554Z,8.60
2022-12-24T06:02:05.188Z,7.90
2022-12-24T06:07:06.706Z,8.83
2022-12-24T06:12:08.275Z,8.63
2022-12-24T06:17:09.762Z,8.23
2022-12-24T06:22:11.220Z,8.60
2022-12-24T06:27:12.634Z,8.87
2022-12-24T06:32:14.123Z,7.67
2022-12-24T06:37:18.405Z,8.27
2022-12-24T06:42:19.848Z,8.18
2022-12-24T06:47:21.339Z,7.70
2022-12-24T06:52:22.846Z,8.17
2022-12-24T06:57:24.304Z,8.17
2022-12-24T07:02:26.429Z,7.83
2022-12-24T07:07:28.022Z,10.07
2022-12-24T07:12:29.679Z,8.63
2022-12-24T07:17:31.127Z,8.83
2022-12-24T07:22:32.711Z,9.47
2022-12-24T07:27:34.165Z,8.40
2022-12-24T07:32:35.602Z,9.27
2022-12-24T07:37:37.229Z,9.27
2022-12-24T07:42:38.679Z,9.33
2022-12-24T07:47:40.190Z,9.40
2022-12-24T07:52:41.629Z,8.60
2022-12-24T07:57:43.019Z,9.00
2022-12-24T08:02:44.839Z,9.17
2022-12-24T08:07:46.463Z,9.00
2022-12-24T08:12:48.348Z,8.67
2022-12-24T08:17:49.925Z,9.43
2022-12-24T08:22:52.395Z,9.93
2022-12-24T08:27:53.889Z,9.93
2022-12-24T08:32:55.325Z,9.10
2022-12-24T08:37:56.924Z,9.00
2022-12-24T08:42:58.422Z,8.63
2022-12-24T08:48:00.492Z,9.67
2022-12-24T08:53:02.124Z,10.33
2022-12-24T08:58:03.636Z,9.17
2022-12-24T09:03:05.228Z,9.13
2022-12-24T09:08:06.771Z,9.17
2022-12-24T09:13:08.175Z,9.43
2022-12-24T09:18:10.590Z,9.33
2022-12-24T09:23:12.138Z,10.30
2022-12-24T09:28:13.559Z,10.33
2022-12-24T09:33:15.125Z,8.73
2022-12-24T09:38:16.641Z,10.00
2022-12-24T09:43:20.362Z,11.03
2022-12-24T09:48:27.983Z,10.70
2022-12-24T09:53:57.156Z,10.03
2022-12-24T09:59:01.386Z,9.67
2022-12-24T10:04:27.307Z,11.13
2022-12-24T10:09:51.029Z,8.93
2022-12-24T10:14:59.234Z,8.95
2022-12-24T10:20:29.185Z,8.27
2022-12-24T10:25:33.932Z,8.23
2022-12-24T10:30:35.842Z,7.53
2022-12-24T10:35:45.116Z,8.30
2022-12-24T10:40:50.208Z,9.37
2022-12-24T10:45:56.966Z,8.40
2022-12-24T10:51:04.059Z,7.70
2022-12-24T10:56:09.274Z,7.83
2022-12-24T11:01:10.923Z,7.47
2022-12-24T11:06:21.222Z,8.43
2022-12-24T11:11:23.451Z,7.03
2022-12-24T11:16:32.121Z,8.60
2022-12-24T11:21:40.101Z,8.00
2022-12-24T11:26:44.488Z,8.03
2022-12-24T11:31:47.321Z,7.47
2022-12-24T11:36:50.928Z,7.80
2022-12-24T11:41:54.141Z,6.97
2022-12-24T11:46:59.174Z,28.07
2022-12-24T11:52:09.883Z,8.10
2022-12-24T11:57:15.874Z,7.70
2022-12-24T12:02:35.056Z,7.70
2022-12-24T12:07:38.631Z,8.43
2022-12-24T12:12:47.091Z,7.30
2022-12-24T12:17:57.486Z,9.10
2022-12-24T12:23:15.187Z,8.53
2022-12-24T12:28:27.011Z,9.37
2022-12-24T12:33:38.847Z,9.63
2022-12-24T12:38:40.731Z,10.57
2022-12-24T12:44:13.924Z,10.17
2022-12-24T12:49:34.145Z,10.93
2022-12-24T12:55:11.111Z,10.67
2022-12-24T13:00:17.244Z,10.87
2022-12-24T13:05:36.827Z,11.30
2022-12-24T13:10:54.192Z,11.17
2022-12-24T13:16:23.752Z,13.67
2022-12-24T13:21:29.833Z,15.57
2022-12-24T13:26:31.352Z,13.07
2022-12-24T13:31:32.862Z,14.20
2022-12-24T13:37:16.546Z,14.43
2022-12-24T13:42:50.169Z,14.60
2022-12-24T13:47:51.643Z,14.48
2022-12-24T13:52:54.247Z,15.20
2022-12-24T13:58:05.363Z,73.57
2022-12-24T14:03:09.775Z,18.73
2022-12-24T14:08:34.681Z,16.73
2022-12-24T14:13:39.248Z,18.23
2022-12-24T14:23:56.210Z,16.63
2022-12-24T14:29:03.102Z,16.20
2022-12-24T14:34:12.274Z,19.43
2022-12-24T14:39:31.013Z,24.10
2022-12-24T14:44:44.219Z,16.13
2022-12-24T14:50:11.191Z,17.60
2022-12-24T14:55:37.977Z,16.70
2022-12-24T15:00:42.790Z,17.08
2022-12-24T15:05:45.818Z,18.20
2022-12-24T15:10:52.291Z,18.47
2022-12-24T15:15:55.431Z,19.33
2022-12-24T15:21:04.335Z,17.90
2022-12-24T15:26:18.827Z,20.90
2022-12-24T15:31:24.926Z,20.10
2022-12-24T15:36:31.390Z,22.23
2022-12-24T15:42:01.436Z,22.00
2022-12-24T15:47:05.988Z,19.13
2022-12-24T15:52:19.538Z,18.70
2022-12-24T15:57:29.558Z,22.07
2022-12-24T16:02:43.122Z,23.57
2022-12-24T16:08:08.716Z,25.58
2022-12-24T16:13:28.144Z,23.97
2022-12-24T16:18:39.088Z,27.88
2022-12-24T16:23:50.838Z,24.73
2022-12-24T16:28:52.334Z,19.92
2022-12-24T16:33:57.194Z,19.52
2022-12-24T16:39:18.179Z,25.08
2022-12-24T16:44:19.838Z,26.13
2022-12-24T16:49:22.701Z,23.52
2022-12-24T16:54:24.200Z,22.58
2022-12-24T16:59:25.657Z,21.37
2022-12-24T17:04:27.070Z,24.90
2022-12-24T17:09:28.523Z,21.85
2022-12-24T17:14:30.098Z,20.77
2022-12-24T17:19:31.929Z,22.87
2022-12-24T17:24:33.465Z,23.13
2022-12-24T17:29:35.020Z,23.77
2022-12-24T17:34:36.650Z,23.50
2022-12-24T17:39:38.177Z,32.65
2022-12-24T17:44:39.661Z,25.00
2022-12-24T17:49:41.138Z,28.77
2022-12-24T17:54:42.612Z,26.87
2022-12-24T17:59:44.243Z,27.70
2022-12-24T18:04:45.700Z,45.95
2022-12-24T18:09:47.138Z,33.90
2022-12-24T18:14:48.550Z,38.23
2022-12-24T18:19:50.104Z,40.80
2022-12-24T18:24:51.552Z,26.15
2022-12-24T18:29:53.039Z,24.17
2022-12-24T18:34:54.502Z,29.27
2022-12-24T18:39:55.946Z,27.88
2022-12-24T18:44:57.406Z,27.33
2022-12-24T18:49:58.905Z,22.17
2022-12-24T18:55:00.369Z,17.42
2022-12-24T19:00:01.872Z,13.30
2022-12-24T19:05:03.492Z,13.15
2022-12-24T19:10:05.464Z,10.38
2022-12-24T19:15:07.398Z,9.23
2022-12-24T19:20:10.387Z,8.82
2022-12-24T19:25:11.982Z,7.88
2022-12-24T19:30:14.611Z,7.30
2022-12-24T19:35:16.581Z,7.47
2022-12-24T19:40:18.134Z,8.27
2022-12-24T19:45:20.733Z,7.75
2022-12-24T19:50:22.290Z,6.85
2022-12-24T19:55:23.831Z,6.72
2022-12-24T20:00:25.491Z,6.80
2022-12-24T20:05:26.980Z,6.32
2022-12-24T20:10:28.454Z,6.22
2022-12-24T20:15:29.888Z,6.13
2022-12-24T20:20:31.378Z,6.97
2022-12-24T20:25:37.550Z,45.22
2022-12-24T20:30:40.286Z,10.35
2022-12-24T20:35:41.830Z,7.75
2022-12-24T20:40:45.266Z,7.00
2022-12-24T20:45:51.054Z,6.57
2022-12-24T20:50:52.762Z,6.85
2022-12-24T20:55:54.836Z,5.65
2022-12-24T21:00:56.368Z,5.93
2022-12-24T21:05:57.851Z,6.47
2022-12-24T21:11:18.142Z,7.70
2022-12-24T21:16:19.660Z,8.35
2022-12-24T21:21:21.670Z,7.60
2022-12-24T21:26:23.478Z,9.48
2022-12-24T21:31:25.056Z,29.63
2022-12-24T21:36:26.910Z,13.75
2022-12-24T21:41:29.026Z,10.80
2022-12-24T21:46:30.817Z,12.88
2022-12-24T21:51:33.100Z,12.07
2022-12-24T21:56:54.660Z,12.07
2022-12-24T22:01:57.059Z,11.27
2022-12-24T22:07:17.790Z,11.07
2022-12-24T22:12:19.854Z,12.57
2022-12-24T22:17:25.450Z,8.88
2022-12-24T22:22:27.451Z,11.70
2022-12-24T22:27:28.941Z,8.73
2022-12-24T22:32:30.405Z,8.95
2022-12-24T22:37:31.879Z,8.75
2022-12-24T22:42:34.090Z,7.82
2022-12-24T22:47:35.580Z,9.07
2022-12-24T22:52:37.033Z,27.95
2022-12-24T22:57:38.518Z,9.73
2022-12-24T23:02:40.152Z,7.88
2022-12-24T23:07:41.705Z,9.15
2022-12-24T23:13:01.951Z,6.78
2022-12-24T23:18:03.817Z,6.35
2022-12-24T23:23:05.314Z,6.10
2022-12-24T23:28:07.333Z,6.53
2022-12-24T23:33:08.800Z,6.40
2022-12-24T23:38:10.246Z,6.22
2022-12-24T23:43:11.734Z,7.50
2022-12-24T23:48:13.221Z,7.18
2022-12-24T23:53:15.889Z,7.68
2022-12-24T23:58:17.414Z,8.52
